Time;durP1;ratioP1;P1;durP2;ratioP2;P2;SDS_P1;SDS_P2;PMS_P1;PMS_P2;Temp;Humidity;BMP_temperature;BMP_pressure;BME280_temperature;BME280_humidity;BME280_pressure;Samples;Min_cycle;Max_cycle;Signal;HPM_P1;HPM_P2
2021/03/27 00:00:31;;;;;;;9.48;4.57;;;9.40;99.90;;;;;;5025035;28;20101;-73
2021/03/27 00:03:07;;;;;;;9.57;4.55;;;9.40;99.90;;;;;;5041009;28;20025;-71
2021/03/27 00:06:02;;;;;;;11.10;5.20;;;9.30;99.90;;;;;;5046318;28;20045;-71
2021/03/27 00:08:35;;;;;;;;;;;9.30;99.90;;;;;;5049179;28;20033;-71
2021/03/27 00:11:14;;;;;;;10.38;4.20;;;9.30;99.90;;;;;;5029359;28;19905;-72
2021/03/27 00:13:57;;;;;;;7.20;3.97;;;9.30;99.90;;;;;;5026112;28;20041;-74
2021/03/27 00:16:44;;;;;;;9.52;4.32;;;9.30;99.90;;;;;;5024796;28;20038;-72
2021/03/27 00:19:20;;;;;;;12.38;4.55;;;9.30;99.90;;;;;;5039304;28;20034;-73
2021/03/27 00:21:52;;;;;;;8.25;4.53;;;9.30;99.90;;;;;;5045786;28;20025;-72
2021/03/27 00:24:36;;;;;;;12.30;4.35;;;9.30;99.90;;;;;;5044608;28;20029;-70
2021/03/27 00:27:09;;;;;;;8.90;4.53;;;9.30;99.90;;;;;;5045955;28;20064;-73
2021/03/27 00:29:38;;;;;;;10.18;5.07;;;9.30;99.90;;;;;;5046044;28;20029;-72
2021/03/27 00:32:10;;;;;;;11.18;4.68;;;9.30;99.90;;;;;;5044253;28;20067;-74
2021/03/27 00:34:39;;;;;;;13.18;4.88;;;9.40;99.90;;;;;;5044454;28;20037;-72
2021/03/27 00:37:10;;;;;;;8.27;4.55;;;9.40;99.90;;;;;;5044312;28;20022;-72
2021/03/27 00:40:05;;;;;;;7.40;4.28;;;9.30;99.90;;;;;;5044275;28;20127;-71
2021/03/27 00:42:36;;;;;;;7.88;4.07;;;9.20;99.90;;;;;;5044192;28;20044;-72
2021/03/27 00:45:11;;;;;;;9.52;4.78;;;9.10;99.90;;;;;;5045637;28;20021;-72
2021/03/27 00:47:40;;;;;;;10.23;4.70;;;9.10;99.90;;;;;;5045498;28;20034;-71
2021/03/27 00:50:26;;;;;;;7.78;4.13;;;9.10;99.90;;;;;;5043986;28;20064;-72
2021/03/27 00:52:56;;;;;;;11.73;4.28;;;9.10;99.90;;;;;;5045425;28;20112;-74
2021/03/27 00:55:43;;;;;;;7.40;4.03;;;9.00;99.90;;;;;;5045378;28;20124;-72
2021/03/27 00:58:16;;;;;;;7.38;4.10;;;9.00;99.90;;;;;;5043791;28;20033;-71
2021/03/27 01:00:45;;;;;;;7.77;4.40;;;9.00;99.90;;;;;;5043567;28;20061;-72
2021/03/27 01:03:27;;;;;;;9.00;3.17;;;9.00;99.90;;;;;;5045162;28;20268;-72
2021/03/27 01:05:54;;;;;;;10.63;4.60;;;9.00;99.90;;;;;;5043917;28;20104;-72
2021/03/27 01:08:23;;;;;;;11.55;4.45;;;9.00;99.90;;;;;;5043607;28;20120;-72
2021/03/27 01:10:57;;;;;;;10.07;4.45;;;9.00;99.90;;;;;;5045033;28;20017;-72
2021/03/27 01:13:36;;;;;;;14.53;4.53;;;9.00;99.90;;;;;;5045028;28;20033;-71
2021/03/27 01:16:05;;;;;;;7.25;3.72;;;9.00;99.90;;;;;;5045201;28;20029;-73
2021/03/27 01:18:45;;;;;;;9.60;4.35;;;9.10;99.90;;;;;;5045020;28;20041;-73
2021/03/27 01:21:15;;;;;;;8.45;3.35;;;9.10;99.90;;;;;;5044927;28;20057;-73
2021/03/27 01:23:42;;;;;;;7.22;3.33;;;9.20;99.90;;;;;;5044805;28;20037;-69
2021/03/27 01:26:22;;;;;;;6.47;3.22;;;9.20;99.90;;;;;;5044943;28;20033;-71
2021/03/27 01:29:02;;;;;;;7.25;3.45;;;9.20;99.90;;;;;;5044828;28;20034;-73
2021/03/27 01:31:34;;;;;;;6.10;2.83;;;9.20;99.90;;;;;;5043706;28;20116;-72
2021/03/27 01:34:10;;;;;;;6.32;2.92;;;9.20;99.90;;;;;;5043665;28;20607;-72
2021/03/27 01:36:48;;;;;;;6.55;3.05;;;9.20;99.90;;;;;;5044788;28;20036;-72
2021/03/27 01:39:18;;;;;;;7.38;3.65;;;9.30;99.90;;;;;;5043063;28;20053;-72
2021/03/27 01:41:56;;;;;;;5.90;2.63;;;9.30;99.90;;;;;;5042896;28;20520;-70
2021/03/27 01:44:40;;;;;;;5.82;2.97;;;9.30;99.90;;;;;;5044694;28;20802;-70
2021/03/27 01:47:23;;;;;;;4.73;2.90;;;9.30;99.90;;;;;;5044777;28;20097;-70
2021/03/27 01:50:07;;;;;;;6.80;2.80;;;9.40;99.90;;;;;;5044519;28;20029;-71
2021/03/27 01:52:47;;;;;;;3.97;2.47;;;9.40;99.90;;;;;;5044720;28;20034;-70
2021/03/27 01:55:16;;;;;;;5.15;2.60;;;9.40;99.90;;;;;;5044654;28;20030;-71
2021/03/27 01:58:07;;;;;;;7.88;3.20;;;9.50;99.90;;;;;;5043065;28;20022;-72
2021/03/27 02:00:37;;;;;;;5.93;2.60;;;9.50;99.90;;;;;;5044645;28;20116;-71
2021/03/27 02:03:18;;;;;;;9.07;2.58;;;9.50;99.90;;;;;;5044894;28;20044;-71
2021/03/27 02:06:00;;;;;;;6.00;2.45;;;9.50;99.90;;;;;;5044345;28;20038;-72
2021/03/27 02:08:33;;;;;;;6.20;3.40;;;9.50;99.90;;;;;;5044341;28;20064;-73
2021/03/27 02:11:24;;;;;;;7.23;3.87;;;9.60;99.90;;;;;;5044325;28;20086;-74
2021/03/27 02:13:56;;;;;;;6.20;3.28;;;9.60;99.90;;;;;;5043033;28;20268;-73
2021/03/27 02:16:33;;;;;;;10.05;3.47;;;9.60;99.90;;;;;;5042752;28;20025;-71
2021/03/27 02:19:05;;;;;;;4.22;2.42;;;9.70;99.90;;;;;;5043208;28;20095;-73
2021/03/27 02:21:47;;;;;;;10.52;3.67;;;9.70;99.90;;;;;;5044465;28;20084;-71
2021/03/27 02:24:47;;;;;;;4.80;2.72;;;9.80;99.90;;;;;;5044105;28;20025;-73
2021/03/27 02:27:22;;;;;;;4.18;2.25;;;9.90;99.90;;;;;;5042973;28;20026;-72
2021/03/27 02:30:03;;;;;;;13.13;2.38;;;10.00;99.90;;;;;;5044219;28;20042;-75
2021/03/27 02:32:43;;;;;;;4.68;2.22;;;9.70;99.90;;;;;;5044583;28;20108;-77
2021/03/27 02:35:38;;;;;;;5.15;2.42;;;9.50;99.90;;;;;;5043797;28;20026;-73
2021/03/27 02:38:28;;;;;;;4.50;2.08;;;9.30;99.90;;;;;;5044161;28;20418;-72
2021/03/27 02:41:24;;;;;;;4.60;1.95;;;9.00;99.90;;;;;;5043940;28;20038;-73
2021/03/27 02:44:18;;;;;;;4.55;2.03;;;8.80;99.90;;;;;;5042707;28;20087;-77
2021/03/27 02:46:49;;;;;;;2.75;1.58;;;8.60;99.90;;;;;;5044096;28;20072;-76
2021/03/27 02:49:24;;;;;;;2.33;1.15;;;8.50;99.90;;;;;;5044061;28;20425;-75
2021/03/27 02:52:02;;;;;;;1.30;0.70;;;8.30;99.90;;;;;;5043981;28;20022;-72
2021/03/27 02:54:42;;;;;;;0.93;0.50;;;8.10;99.90;;;;;;5044464;28;20052;-74
2021/03/27 02:57:33;;;;;;;0.20;0.20;;;7.90;99.90;;;;;;5046233;28;20021;-73
2021/03/27 03:00:02;;;;;;;1.23;0.40;;;7.70;99.90;;;;;;5047564;28;20130;-73
2021/03/27 03:02:45;;;;;;;0.77;0.50;;;7.50;99.90;;;;;;5047757;28;20064;-71
2021/03/27 03:05:34;;;;;;;0.75;0.50;;;7.40;99.90;;;;;;5046126;28;20037;-72
2021/03/27 03:08:25;;;;;;;0.43;0.30;;;7.30;99.90;;;;;;5046068;28;20030;-71
2021/03/27 03:11:09;;;;;;;1.33;0.70;;;7.30;99.90;;;;;;5047072;28;20068;-74
2021/03/27 03:13:37;;;;;;;0.77;0.50;;;7.20;99.90;;;;;;5047343;28;20032;-73
2021/03/27 03:16:15;;;;;;;0.43;0.30;;;7.00;99.90;;;;;;5047340;28;20386;-73
2021/03/27 03:19:06;;;;;;;2.15;0.40;;;6.90;99.90;;;;;;5046770;28;20132;-71
2021/03/27 03:21:36;;;;;;;0.88;0.25;;;6.80;99.90;;;;;;5047172;28;20030;-72
2021/03/27 03:24:24;;;;;;;0.25;0.20;;;6.70;99.90;;;;;;5047217;28;20456;-71
2021/03/27 03:27:07;;;;;;;1.40;0.30;;;6.70;99.90;;;;;;5046972;28;20025;-71
2021/03/27 03:29:38;;;;;;;1.38;0.40;;;6.60;99.90;;;;;;5047140;28;20171;-72
2021/03/27 03:32:31;;;;;;;0.43;0.32;;;6.60;99.90;;;;;;5047229;28;20029;-73
2021/03/27 03:35:19;;;;;;;1.17;0.30;;;6.60;99.90;;;;;;5047008;28;20036;-72
2021/03/27 03:38:09;;;;;;;0.52;0.32;;;6.60;99.90;;;;;;5046366;28;20092;-69
2021/03/27 03:40:46;;;;;;;1.30;0.65;;;6.60;99.90;;;;;;5046920;28;20037;-71
2021/03/27 03:43:48;;;;;;;1.38;0.70;;;6.60;99.90;;;;;;5046703;28;20085;-69
2021/03/27 03:46:40;;;;;;;2.63;1.10;;;6.50;99.90;;;;;;5046471;28;20052;-71
2021/03/27 03:49:13;;;;;;;1.13;0.43;;;6.50;99.90;;;;;;5046623;28;20049;-73
2021/03/27 03:51:45;;;;;;;1.75;1.13;;;6.40;99.90;;;;;;5046555;28;20036;-70
2021/03/27 03:54:19;;;;;;;1.67;0.88;;;6.40;99.90;;;;;;5046250;28;20037;-69
2021/03/27 03:56:52;;;;;;;1.23;0.60;;;6.50;99.90;;;;;;5046338;28;20029;-69
2021/03/27 03:59:34;;;;;;;2.75;1.00;;;6.40;99.90;;;;;;5046243;28;20059;-71
2021/03/27 04:02:16;;;;;;;2.00;1.20;;;6.40;99.90;;;;;;5046607;28;20026;-72
2021/03/27 04:04:47;;;;;;;1.80;0.80;;;6.40;99.90;;;;;;5046157;28;20026;-72
2021/03/27 04:07:19;;;;;;;1.52;1.00;;;6.40;99.90;;;;;;5045776;28;20022;-70
2021/03/27 04:09:57;;;;;;;1.02;0.60;;;6.40;99.90;;;;;;5046176;28;20055;-72
2021/03/27 04:12:38;;;;;;;7.25;0.85;;;6.40;99.90;;;;;;5046381;28;20039;-70
2021/03/27 04:15:28;;;;;;;1.38;0.85;;;6.40;99.90;;;;;;5046227;28;20048;-72
2021/03/27 04:18:25;;;;;;;1.35;0.52;;;6.40;99.90;;;;;;5045778;28;20076;-73
2021/03/27 04:21:15;;;;;;;3.80;1.30;;;6.30;99.90;;;;;;5045963;28;20045;-71
2021/03/27 04:23:53;;;;;;;3.33;1.15;;;6.30;99.90;;;;;;5044529;28;20052;-69
2021/03/27 04:26:26;;;;;;;1.85;1.08;;;6.30;99.90;;;;;;5045799;28;20055;-71
2021/03/27 04:28:56;;;;;;;1.17;0.77;;;6.30;99.90;;;;;;5045623;28;20036;-70
2021/03/27 04:31:31;;;;;;;1.77;1.02;;;6.30;99.90;;;;;;5045870;28;20029;-70
2021/03/27 04:34:21;;;;;;;3.75;1.80;;;6.30;99.90;;;;;;5045842;28;20028;-70
2021/03/27 04:37:19;;;;;;;2.35;0.95;;;6.30;99.90;;;;;;5045719;28;20029;-69
2021/03/27 04:40:15;;;;;;;2.63;1.13;;;6.30;99.90;;;;;;5045352;28;20041;-71
2021/03/27 04:43:02;;;;;;;3.58;1.58;;;6.30;99.90;;;;;;5045544;28;20029;-69
2021/03/27 04:45:41;;;;;;;1.10;0.90;;;6.30;99.90;;;;;;5045497;28;20093;-69
2021/03/27 04:48:41;;;;;;;4.22;1.50;;;6.30;99.90;;;;;;5045491;28;20025;-71
2021/03/27 04:51:20;;;;;;;2.13;0.85;;;6.30;99.90;;;;;;5046039;28;20136;-70
2021/03/27 04:54:24;;;;;;;4.30;1.63;;;6.30;99.90;;;;;;5044114;28;20424;-69
2021/03/27 04:57:24;;;;;;;2.92;1.48;;;6.40;99.90;;;;;;5044993;28;20065;-68
2021/03/27 05:00:11;;;;;;;2.58;1.42;;;6.30;99.90;;;;;;5045168;28;20076;-68
2021/03/27 05:02:47;;;;;;;4.60;1.33;;;6.20;99.90;;;;;;5045353;28;20033;-71
2021/03/27 05:05:50;;;;;;;4.22;1.58;;;6.20;99.90;;;;;;5045196;28;20025;-70
2021/03/27 05:08:22;;;;;;;4.50;2.08;;;6.20;99.90;;;;;;5051416;28;20537;-69
2021/03/27 05:10:59;;;;;;;3.20;1.95;;;6.20;99.90;;;;;;5044921;28;20084;-68
2021/03/27 05:13:50;;;;;;;1.95;1.00;;;6.20;99.90;;;;;;5045078;28;20017;-70
2021/03/27 05:16:29;;;;;;;4.78;2.40;;;6.20;99.90;;;;;;5044910;28;20055;-70
2021/03/27 05:19:42;;;;;;;7.15;2.58;;;6.20;99.90;;;;;;5044319;28;20065;-70
2021/03/27 05:22:40;;;;;;;5.72;2.22;;;6.20;99.90;;;;;;5044810;28;20029;-72
2021/03/27 05:25:33;;;;;;;5.53;2.42;;;6.20;99.90;;;;;;5046845;28;20045;-71
2021/03/27 05:28:27;;;;;;;3.45;1.55;;;6.20;99.90;;;;;;5045105;28;20068;-69
2021/03/27 05:31:09;;;;;;;6.07;2.67;;;6.10;99.90;;;;;;5044644;28;20040;-71
2021/03/27 05:33:41;;;;;;;7.40;2.65;;;6.10;99.90;;;;;;5044927;28;20033;-74
2021/03/27 05:36:44;;;;;;;5.45;2.35;;;6.10;99.90;;;;;;5044946;28;20080;-69
2021/03/27 05:40:02;;;;;;;4.78;2.33;;;6.10;99.90;;;;;;5044590;28;20029;-70
2021/03/27 05:42:48;;;;;;;5.82;2.50;;;6.10;99.90;;;;;;5041861;28;20466;-70
2021/03/27 05:45:31;;;;;;;4.93;2.15;;;6.10;99.90;;;;;;5027105;28;20040;-69
2021/03/27 05:48:15;;;;;;;5.47;2.78;;;6.00;99.90;;;;;;5038308;28;20034;-71
2021/03/27 05:50:59;;;;;;;5.55;2.45;;;6.00;99.90;;;;;;5024802;28;20030;-71
2021/03/27 05:53:46;;;;;;;4.35;2.35;;;6.00;99.90;;;;;;5044458;28;20044;-70
2021/03/27 05:56:30;;;;;;;6.93;2.85;;;6.10;99.90;;;;;;5044355;28;20026;-73
2021/03/27 05:59:06;;;;;;;6.72;3.28;;;6.10;99.90;;;;;;5030204;28;20069;-70
2021/03/27 06:01:47;;;;;;;6.10;2.75;;;6.10;99.90;;;;;;5023516;28;20030;-72
2021/03/27 06:04:21;;;;;;;10.85;3.75;;;6.10;99.90;;;;;;5024645;28;20034;-70
2021/03/27 06:06:49;;;;;;;7.13;3.00;;;6.10;99.90;;;;;;5031496;28;20026;-72
2021/03/27 06:09:42;;;;;;;6.05;3.38;;;6.10;99.90;;;;;;5044248;28;20064;-71
2021/03/27 06:12:36;;;;;;;6.25;2.85;;;6.10;99.90;;;;;;5044613;28;20040;-70
2021/03/27 06:15:17;;;;;;;6.80;3.78;;;6.10;99.90;;;;;;5025537;28;20036;-72
2021/03/27 06:18:14;;;;;;;8.55;3.08;;;6.10;99.90;;;;;;5024389;28;20140;-70
2021/03/27 06:20:58;;;;;;;13.13;3.20;;;6.10;99.90;;;;;;5023514;28;20096;-72
2021/03/27 06:23:57;;;;;;;6.72;3.22;;;6.10;99.90;;;;;;5036697;28;20035;-71
2021/03/27 06:27:12;;;;;;;7.20;3.53;;;6.20;99.90;;;;;;5044374;28;20030;-73
2021/03/27 06:30:18;;;;;;;7.50;3.33;;;6.20;99.90;;;;;;5046514;28;21788;-72
2021/03/27 06:33:02;;;;;;;5.85;2.72;;;6.20;99.90;;;;;;5047844;28;20083;-72
2021/03/27 06:35:40;;;;;;;7.45;3.72;;;6.20;99.90;;;;;;5031478;28;20045;-72
2021/03/27 06:38:12;;;;;;;6.50;3.40;;;6.20;99.90;;;;;;5039112;28;20035;-72
2021/03/27 06:41:15;;;;;;;8.70;2.97;;;6.30;99.90;;;;;;5038163;28;20040;-72
2021/03/27 06:44:00;;;;;;;16.45;3.83;;;6.30;99.90;;;;;;5028170;28;20029;-72
2021/03/27 06:47:03;;;;;;;6.10;3.13;;;6.30;99.90;;;;;;5027899;28;20061;-72
2021/03/27 06:50:06;;;;;;;12.02;3.10;;;6.30;99.90;;;;;;5028084;28;20486;-73
2021/03/27 06:53:06;;;;;;;6.82;2.50;;;6.40;99.90;;;;;;5047263;28;20030;-73
2021/03/27 06:56:09;;;;;;;7.72;3.42;;;6.40;99.90;;;;;;5047302;28;20026;-73
2021/03/27 06:59:01;;;;;;;6.27;3.17;;;6.50;99.90;;;;;;5047761;28;20044;-73
2021/03/27 07:01:52;;;;;;;9.27;3.33;;;6.50;99.90;;;;;;5047137;28;20108;-71
2021/03/27 07:04:30;;;;;;;9.60;2.38;;;6.60;99.90;;;;;;5046856;28;20036;-71
2021/03/27 07:07:23;;;;;;;12.88;2.75;;;6.60;99.90;;;;;;5044279;28;20576;-73
2021/03/27 07:10:22;;;;;;;6.75;2.90;;;6.70;99.90;;;;;;5039855;28;20034;-72
2021/03/27 07:13:08;;;;;;;7.03;2.45;;;6.70;99.90;;;;;;5045353;28;20053;-72
2021/03/27 07:15:52;;;;;;;4.45;2.17;;;6.70;99.90;;;;;;5046631;28;20116;-72
2021/03/27 07:18:55;;;;;;;8.85;3.65;;;6.70;99.90;;;;;;5045605;28;20056;-73
2021/03/27 07:22:03;;;;;;;5.22;1.65;;;6.70;99.90;;;;;;5047108;28;20026;-73
2021/03/27 07:24:31;;;;;;;5.10;2.30;;;6.70;99.90;;;;;;5047291;28;20034;-71
2021/03/27 07:27:37;;;;;;;5.82;2.55;;;6.70;99.90;;;;;;5046931;28;20025;-70
2021/03/27 07:30:22;;;;;;;7.85;2.63;;;6.70;99.90;;;;;;5047211;28;20065;-75
2021/03/27 07:32:57;;;;;;;6.32;2.58;;;6.70;99.90;;;;;;5046961;28;20025;-71
2021/03/27 07:35:32;;;;;;;3.95;2.17;;;6.70;99.90;;;;;;5046740;28;20099;-71
2021/03/27 07:38:35;;;;;;;6.07;2.63;;;6.70;99.90;;;;;;5046718;28;20025;-70
2021/03/27 07:41:43;;;;;;;5.18;3.00;;;6.70;99.90;;;;;;5045960;28;20124;-74
2021/03/27 07:44:24;;;;;;;6.35;2.78;;;6.80;99.90;;;;;;5045573;28;20394;-72
2021/03/27 07:47:28;;;;;;;6.32;2.33;;;6.90;99.90;;;;;;5046390;28;20025;-72
2021/03/27 07:50:21;;;;;;;3.40;2.28;;;6.90;99.90;;;;;;5046484;28;20033;-73
2021/03/27 07:53:09;;;;;;;6.47;2.60;;;7.00;99.90;;;;;;5046427;28;20079;-71
2021/03/27 07:56:08;;;;;;;2.97;2.15;;;7.00;99.90;;;;;;5046563;28;20091;-72
2021/03/27 07:59:12;;;;;;;4.78;2.70;;;7.00;99.90;;;;;;5046420;28;20029;-74
2021/03/27 08:01:56;;;;;;;9.45;2.78;;;7.00;99.90;;;;;;5045880;28;20063;-74
2021/03/27 08:04:40;;;;;;;6.53;2.92;;;7.00;99.90;;;;;;5042619;28;20075;-75
2021/03/27 08:07:39;;;;;;;4.75;2.50;;;7.00;99.90;;;;;;5045537;28;20030;-74
2021/03/27 08:10:35;;;;;;;5.30;2.35;;;7.00;99.90;;;;;;5043854;28;20039;-74
2021/03/27 08:13:10;;;;;;;9.10;2.28;;;7.10;99.90;;;;;;5043684;28;20033;-72
2021/03/27 08:15:57;;;;;;;6.10;3.03;;;7.20;99.90;;;;;;5045795;28;20071;-72
2021/03/27 08:18:33;;;;;;;8.27;3.20;;;7.20;99.90;;;;;;5045450;28;20476;-75
2021/03/27 08:21:22;;;;;;;6.07;2.22;;;7.30;99.90;;;;;;5043078;28;20049;-72
2021/03/27 08:24:07;;;;;;;10.68;2.50;;;7.40;99.90;;;;;;5045348;28;20037;-74
2021/03/27 08:27:04;;;;;;;8.00;3.47;;;7.40;99.90;;;;;;5028318;28;20097;-74
2021/03/27 08:29:50;;;;;;;16.20;2.20;;;7.50;99.90;;;;;;5026359;28;20026;-77
2021/03/27 08:32:21;;;;;;;3.33;2.00;;;7.70;99.90;;;;;;5026280;28;20026;-74
2021/03/27 08:35:05;;;;;;;10.02;3.03;;;7.60;99.90;;;;;;5025857;28;20097;-73
2021/03/27 08:37:53;;;;;;;10.37;3.33;;;7.50;99.90;;;;;;5026000;28;20033;-72
2021/03/27 08:40:32;;;;;;;6.07;2.53;;;7.50;99.90;;;;;;5025381;28;20304;-71
2021/03/27 08:43:46;;;;;;;5.72;2.35;;;7.70;99.90;;;;;;5025887;28;20037;-71
2021/03/27 08:46:36;;;;;;;10.93;2.55;;;7.90;99.90;;;;;;5028587;28;20048;-72
2021/03/27 08:49:35;;;;;;;6.35;2.65;;;8.00;99.90;;;;;;5025783;28;20094;-74
2021/03/27 08:52:13;;;;;;;5.60;2.30;;;8.40;99.90;;;;;;5025686;28;20422;-73
2021/03/27 08:54:56;;;;;;;4.03;2.17;;;8.70;99.90;;;;;;5040577;28;20038;-73
2021/03/27 08:57:34;;;;;;;4.47;2.22;;;9.00;99.90;;;;;;5025697;28;20095;-73
2021/03/27 09:00:23;;;;;;;4.70;2.30;;;9.10;99.90;;;;;;5023918;28;20037;-74
2021/03/27 09:03:11;;;;;;;3.33;2.13;;;9.10;99.90;;;;;;5024537;28;20022;-75
2021/03/27 09:06:09;;;;;;;3.95;1.98;;;9.00;99.90;;;;;;5034270;28;20026;-71
2021/03/27 09:08:45;;;;;;;4.93;2.25;;;8.70;99.90;;;;;;5044373;28;20075;-68
2021/03/27 09:11:23;;;;;;;5.97;2.22;;;8.30;99.90;;;;;;5044318;28;20032;-74
2021/03/27 09:13:59;;;;;;;6.03;1.23;;;7.90;99.90;;;;;;5043690;28;20034;-71
2021/03/27 09:16:39;;;;;;;9.25;1.95;;;7.40;99.90;;;;;;5044465;28;20045;-72
2021/03/27 09:19:23;;;;;;;15.38;2.30;;;7.30;99.90;;;;;;5043242;28;20390;-71
2021/03/27 09:22:08;;;;;;;;;;;7.00;99.90;;;;;;5045076;28;20045;-77
2021/03/27 09:24:42;;;;;;;2.00;0.80;;;6.60;99.90;;;;;;5044480;28;19909;-76
2021/03/27 09:27:27;;;;;;;3.95;1.67;;;6.30;99.90;;;;;;5044788;28;20025;-75
2021/03/27 09:30:14;;;;;;;3.22;1.10;;;6.20;99.90;;;;;;5044691;28;20037;-71
2021/03/27 09:32:49;;;;;;;5.28;1.52;;;6.10;99.90;;;;;;5043395;28;20087;-74
2021/03/27 09:35:42;;;;;;;4.22;0.80;;;5.90;99.90;;;;;;5035803;28;20037;-72
2021/03/27 09:38:26;;;;;;;1.10;0.70;;;5.70;99.90;;;;;;5052729;28;20438;-72
2021/03/27 09:40:55;;;;;;;;;;;5.50;99.90;;;;;;5032796;28;20038;-71
2021/03/27 09:43:23;;;;;;;0.85;0.75;;;5.50;99.90;;;;;;5041920;28;19909;-72
2021/03/27 09:46:11;;;;;;;1.75;1.05;;;5.60;99.90;;;;;;5024098;28;20386;-72
2021/03/27 09:48:44;;;;;;;6.95;0.40;;;5.50;99.90;;;;;;5031366;28;20041;-72
2021/03/27 09:51:31;;;;;;;4.20;0.55;;;5.60;99.90;;;;;;5041363;28;20029;-73
2021/03/27 09:54:15;;;;;;;1.85;1.10;;;5.70;99.90;;;;;;5031960;28;20921;-72
2021/03/27 09:56:56;;;;;;;0.98;0.35;;;6.00;99.90;;;;;;5035909;28;20124;-72
2021/03/27 09:59:30;;;;;;;2.88;0.60;;;6.20;99.90;;;;;;5024477;28;20062;-71
2021/03/27 10:02:14;;;;;;;15.20;0.93;;;6.40;99.90;;;;;;5035611;28;20087;-72
2021/03/27 10:04:55;;;;;;;1.53;0.90;;;6.50;99.90;;;;;;5044617;28;20029;-74
2021/03/27 10:07:49;;;;;;;5.68;1.65;;;6.70;99.90;;;;;;5046533;28;20744;-70
2021/03/27 10:10:36;;;;;;;1.33;0.77;;;6.80;99.90;;;;;;5048004;28;20033;-71
2021/03/27 10:13:38;;;;;;;9.35;1.63;;;6.90;99.90;;;;;;5045546;28;20394;-72
2021/03/27 10:16:06;;;;;;;1.63;1.17;;;7.00;99.90;;;;;;5047049;28;20025;-73
2021/03/27 10:18:42;;;;;;;5.90;1.55;;;7.10;99.90;;;;;;5047884;28;20053;-74
2021/03/27 10:21:37;;;;;;;10.98;1.50;;;7.20;99.90;;;;;;5048011;28;20040;-73
2021/03/27 10:24:11;;;;;;;3.65;1.17;;;7.20;99.90;;;;;;5047917;28;20120;-72
2021/03/27 10:27:06;;;;;;;2.08;0.95;;;7.40;99.90;;;;;;5046647;28;20029;-73
2021/03/27 10:29:55;;;;;;;1.73;0.90;;;7.50;99.90;;;;;;5051232;28;20041;-72
2021/03/27 10:32:41;;;;;;;6.03;2.15;;;7.70;99.90;;;;;;5042988;28;20445;-73
2021/03/27 10:35:18;;;;;;;3.92;1.45;;;7.90;99.90;;;;;;5047818;28;20061;-74
2021/03/27 10:38:19;;;;;;;5.63;1.67;;;7.90;99.90;;;;;;5047491;28;20047;-72
2021/03/27 10:40:55;;;;;;;10.82;2.08;;;7.80;99.90;;;;;;5034557;28;20478;-72
2021/03/27 10:43:24;;;;;;;3.78;1.83;;;7.90;99.90;;;;;;5028097;28;20370;-74
2021/03/27 10:46:04;;;;;;;3.20;1.35;;;7.80;99.90;;;;;;5031988;28;20041;-73
2021/03/27 10:48:50;;;;;;;2.72;0.93;;;7.70;99.90;;;;;;5044861;28;20126;-72
2021/03/27 10:51:55;;;;;;;9.80;1.25;;;7.60;99.90;;;;;;5046782;28;20036;-71
2021/03/27 10:54:58;;;;;;;4.20;1.27;;;7.70;99.90;;;;;;5035876;28;20034;-76
2021/03/27 10:58:02;;;;;;;2.58;0.80;;;7.90;99.90;;;;;;5029145;28;20089;-73
2021/03/27 11:00:46;;;;;;;11.80;1.77;;;8.40;99.90;;;;;;5046112;28;20514;-72
2021/03/27 11:03:37;;;;;;;2.78;1.30;;;8.80;99.90;;;;;;5047164;28;20048;-74
2021/03/27 11:06:21;;;;;;;3.28;1.50;;;9.30;99.90;;;;;;5047712;28;20029;-74
2021/03/27 11:09:21;;;;;;;0.93;0.70;;;9.50;99.90;;;;;;5041765;28;20081;-75
2021/03/27 11:11:59;;;;;;;4.80;1.65;;;9.40;99.90;;;;;;5027518;28;20026;-75
2021/03/27 11:14:53;;;;;;;3.25;0.85;;;9.40;99.90;;;;;;5026932;28;20037;-74
2021/03/27 11:17:46;;;;;;;2.30;0.82;;;9.10;99.90;;;;;;5026481;28;20129;-73
2021/03/27 11:20:38;;;;;;;0.98;0.38;;;8.70;99.90;;;;;;5027107;28;20049;-74
2021/03/27 11:23:13;;;;;;;0.75;0.32;;;8.00;99.90;;;;;;5027275;28;20026;-75
2021/03/27 11:26:06;;;;;;;5.03;0.90;;;7.50;99.90;;;;;;5034722;28;20033;-73
2021/03/27 11:28:50;;;;;;;6.38;1.65;;;7.20;99.90;;;;;;5046997;28;20170;-73
2021/03/27 11:31:31;;;;;;;0.52;0.52;;;7.00;99.90;;;;;;5046418;28;20516;-74
2021/03/27 11:34:23;;;;;;;4.90;1.15;;;6.90;99.90;;;;;;5046614;28;20026;-71
2021/03/27 11:37:30;;;;;;;2.75;0.95;;;7.00;99.90;;;;;;5046344;28;20081;-74
2021/03/27 11:40:12;;;;;;;1.65;0.52;;;7.10;99.90;;;;;;5046401;28;20044;-71
2021/03/27 11:43:08;;;;;;;3.28;1.00;;;7.30;99.90;;;;;;5046615;28;20025;-72
2021/03/27 11:45:41;;;;;;;5.15;0.95;;;7.50;99.90;;;;;;5046519;28;20474;-72
2021/03/27 11:48:35;;;;;;;1.02;0.68;;;8.00;99.90;;;;;;5046557;28;20058;-74
2021/03/27 11:51:24;;;;;;;14.68;1.35;;;8.60;99.90;;;;;;5033429;28;20042;-75
2021/03/27 11:53:50;;;;;;;3.42;0.68;;;8.90;99.90;;;;;;5026511;28;20096;-72
2021/03/27 11:56:42;;;;;;;1.02;0.68;;;9.00;99.90;;;;;;5026432;28;20025;-73
2021/03/27 12:02:35;;;;;;;3.45;1.10;;;9.00;99.90;;;;;;5026253;28;20064;-70
2021/03/27 12:05:27;;;;;;;5.22;0.70;;;8.70;99.90;;;;;;5026554;28;20033;-73
2021/03/27 12:08:14;;;;;;;5.45;1.08;;;8.60;99.90;;;;;;5026270;28;20091;-73
2021/03/27 12:11:07;;;;;;;4.45;0.98;;;8.40;99.90;;;;;;5024814;28;20061;-75
2021/03/27 12:13:41;;;;;;;0.95;0.40;;;8.20;99.90;;;;;;5026145;28;20026;-71
2021/03/27 12:16:16;;;;;;;0.77;0.50;;;8.00;99.90;;;;;;5026305;28;20018;-72
2021/03/27 12:19:06;;;;;;;0.80;0.30;;;7.90;99.90;;;;;;5025591;28;20045;-70
2021/03/27 12:21:45;;;;;;;14.48;0.60;;;7.90;99.90;;;;;;5026229;28;20041;-72
2021/03/27 12:24:29;;;;;;;0.73;0.55;;;7.90;99.90;;;;;;5025877;28;20037;-73
2021/03/27 12:27:30;;;;;;;5.23;1.30;;;7.90;99.90;;;;;;5025423;28;20037;-72
2021/03/27 12:30:19;;;;;;;1.70;0.95;;;8.10;99.90;;;;;;5024031;28;20038;-70
2021/03/27 12:32:55;;;;;;;1.90;0.30;;;8.60;99.90;;;;;;5025915;28;20585;-72
2021/03/27 12:35:28;;;;;;;3.33;0.90;;;9.10;99.90;;;;;;5025788;28;20029;-71
2021/03/27 12:38:05;;;;;;;13.50;0.88;;;9.70;99.90;;;;;;5024403;28;20014;-73
2021/03/27 12:40:34;;;;;;;1.65;0.80;;;10.40;99.90;;;;;;5024296;28;20046;-75
2021/03/27 12:43:09;;;;;;;1.63;0.98;;;10.70;99.90;;;;;;5025831;28;20060;-74
2021/03/27 12:45:48;;;;;;;7.40;1.42;;;10.90;99.90;;;;;;5025768;28;20034;-72
2021/03/27 12:48:29;;;;;;;1.92;0.80;;;11.00;99.90;;;;;;5025780;28;20060;-74
2021/03/27 12:51:00;;;;;;;0.88;0.55;;;11.30;99.90;;;;;;5025712;28;20030;-75
2021/03/27 12:53:25;;;;;;;1.70;0.68;;;11.20;99.90;;;;;;5025525;28;20029;-73
2021/03/27 12:56:13;;;;;;;5.80;1.55;;;10.70;99.90;;;;;;5025715;28;20076;-72
2021/03/27 12:59:10;;;;;;;4.68;1.88;;;10.70;99.90;;;;;;5028112;28;20036;-73
2021/03/27 13:01:54;;;;;;;6.13;0.82;;;10.80;99.90;;;;;;5045181;28;20083;-73
2021/03/27 13:04:25;;;;;;;4.53;0.98;;;10.80;99.90;;;;;;5045106;28;20075;-74
2021/03/27 13:06:57;;;;;;;1.33;0.95;;;10.60;99.90;;;;;;5043442;28;20137;-72
2021/03/27 13:09:46;;;;;;;1.08;0.90;;;10.30;99.90;;;;;;5044965;28;20061;-74
2021/03/27 13:12:35;;;;;;;0.30;0.15;;;9.80;99.90;;;;;;5043283;28;20040;-71
2021/03/27 13:15:26;;;;;;;2.67;0.63;;;9.70;99.90;;;;;;5044891;28;20083;-73
2021/03/27 13:18:23;;;;;;;3.17;0.93;;;9.90;99.90;;;;;;5044812;28;20049;-72
2021/03/27 13:21:07;;;;;;;1.77;0.60;;;10.10;99.90;;;;;;5044796;28;20064;-73
2021/03/27 13:23:46;;;;;;;4.55;1.17;;;10.10;99.90;;;;;;5043169;28;20033;-73
2021/03/27 13:26:32;;;;;;;4.05;1.02;;;10.20;99.90;;;;;;5044428;28;20033;-74
2021/03/27 13:29:32;;;;;;;2.67;0.85;;;10.20;99.90;;;;;;5044656;28;20022;-70
2021/03/27 13:32:19;;;;;;;6.35;1.15;;;10.20;99.90;;;;;;5044552;28;20055;-70
2021/03/27 13:34:55;;;;;;;3.17;0.73;;;10.30;99.90;;;;;;5043469;28;20041;-74
2021/03/27 13:37:39;;;;;;;5.50;1.23;;;10.50;99.90;;;;;;5044496;28;20029;-76
2021/03/27 13:40:23;;;;;;;3.28;1.17;;;10.40;99.90;;;;;;5043657;28;20096;-75
2021/03/27 13:43:14;;;;;;;5.47;1.30;;;10.10;99.90;;;;;;5044643;28;20055;-74
2021/03/27 13:46:07;;;;;;;11.30;0.70;;;9.70;99.90;;;;;;5043075;28;20060;-75
2021/03/27 13:48:45;;;;;;;1.75;0.25;;;8.40;99.90;;;;;;5044492;28;20094;-71
2021/03/27 13:51:32;;;;;;;1.17;0.40;;;6.30;99.90;;;;;;5044308;28;20086;-71
2021/03/27 13:54:02;;;;;;;2.47;0.30;;;5.40;99.90;;;;;;5044304;28;20025;-72
2021/03/27 13:56:31;;;;;;;1.58;0.40;;;5.10;99.90;;;;;;5042914;28;20393;-73
2021/03/27 13:59:15;;;;;;;1.02;0.52;;;5.00;99.90;;;;;;5044016;28;20039;-73
2021/03/27 14:01:44;;;;;;;1.98;0.75;;;5.00;99.90;;;;;;5044214;28;20033;-75
2021/03/27 14:04:26;;;;;;;0.77;0.55;;;5.10;99.90;;;;;;5044308;28;20022;-76
2021/03/27 14:07:04;;;;;;;2.72;0.60;;;5.20;99.90;;;;;;5043776;28;20151;-74
2021/03/27 14:09:38;;;;;;;6.60;0.77;;;5.40;99.90;;;;;;5043842;28;20178;-74
2021/03/27 14:12:16;;;;;;;1.98;0.68;;;5.70;99.90;;;;;;5044126;28;20029;-74
2021/03/27 14:15:01;;;;;;;7.20;1.88;;;6.50;99.90;;;;;;5043922;28;20034;-75
2021/03/27 14:17:49;;;;;;;10.52;1.50;;;7.40;99.90;;;;;;5042358;28;20053;-74
2021/03/27 14:20:46;;;;;;;8.45;1.55;;;8.10;99.90;;;;;;5043928;28;20157;-75
2021/03/27 14:23:31;;;;;;;17.77;1.55;;;8.80;99.90;;;;;;5043955;28;20102;-74
2021/03/27 14:26:24;;;;;;;4.28;1.17;;;9.10;99.90;;;;;;5042773;28;20107;-73